createdAt,value
2018-01-31T01:52:20.983Z,942.35
2018-01-31T01:52:57.817Z,942.32
2018-01-31T01:53:57.811Z,942.33
2018-01-31T01:54:57.808Z,942.33
2018-01-31T01:55:57.802Z,942.31
2018-01-31T01:56:57.796Z,942.33
2018-01-31T01:57:57.793Z,942.35
2018-01-31T01:58:57.786Z,942.31
2018-01-31T01:59:57.787Z,942.27
2018-01-31T02:00:57.778Z,942.25
2018-01-31T02:01:57.772Z,942.25
2018-01-31T02:02:57.766Z,942.19
2018-01-31T02:03:57.762Z,942.22
2018-01-31T02:04:57.757Z,942.20
2018-01-31T02:05:57.750Z,942.19
2018-01-31T02:06:57.746Z,942.19
2018-01-31T02:07:57.741Z,942.16
2018-01-31T02:08:57.736Z,942.14
2018-01-31T02:09:57.730Z,942.16
2018-01-31T02:10:57.727Z,942.12
2018-01-31T02:11:57.719Z,942.09
2018-01-31T02:12:57.717Z,942.08
2018-01-31T02:13:57.709Z,942.09
2018-01-31T02:14:57.704Z,942.06
2018-01-31T02:15:57.701Z,942.10
2018-01-31T02:16:57.693Z,942.07
2018-01-31T02:17:57.689Z,942.02
2018-01-31T02:18:57.689Z,941.99
2018-01-31T02:19:57.679Z,942.02
2018-01-31T02:20:57.674Z,941.97
2018-01-31T02:21:57.668Z,941.93
2018-01-31T02:22:57.663Z,941.91
2018-01-31T02:23:57.658Z,941.91
2018-01-31T02:24:57.653Z,941.90
2018-01-31T02:25:57.647Z,941.89
2018-01-31T02:26:57.643Z,941.88
2018-01-31T02:27:57.636Z,941.85
2018-01-31T02:28:57.631Z,941.83
2018-01-31T02:29:57.625Z,941.82
2018-01-31T02:30:57.620Z,941.79
2018-01-31T02:31:57.624Z,941.79
2018-01-31T02:32:57.611Z,941.84
2018-01-31T02:33:57.605Z,941.82
2018-01-31T02:34:57.600Z,941.87
2018-01-31T02:35:57.595Z,941.88
2018-01-31T02:36:57.595Z,941.85
2018-01-31T02:37:57.584Z,941.86
2018-01-31T02:38:57.585Z,941.87
2018-01-31T02:39:57.576Z,941.84
2018-01-31T02:40:57.574Z,941.81
2018-01-31T02:41:57.563Z,941.79
2018-01-31T02:42:57.558Z,941.80
2018-01-31T02:43:57.558Z,941.75
2018-01-31T02:44:57.551Z,941.77
2018-01-31T02:45:57.541Z,941.76
2018-01-31T02:46:57.537Z,941.76
2018-01-31T02:47:57.530Z,941.73
2018-01-31T02:48:57.529Z,941.76
2018-01-31T02:49:57.519Z,941.75
2018-01-31T02:50:57.514Z,941.74
2018-01-31T02:51:57.509Z,941.71
2018-01-31T02:52:57.504Z,941.66
2018-01-31T02:53:57.498Z,941.74
2018-01-31T02:54:57.491Z,941.73
2018-01-31T02:55:57.487Z,941.74
2018-01-31T02:56:57.482Z,941.75
2018-01-31T02:57:57.476Z,941.78
2018-01-31T02:58:57.471Z,941.79
2018-01-31T02:59:57.465Z,941.77
2018-01-31T03:00:57.461Z,941.74
2018-01-31T03:01:57.457Z,941.69
2018-01-31T03:02:57.451Z,941.72
2018-01-31T03:03:57.444Z,941.71
2018-01-31T03:04:57.438Z,941.70
2018-01-31T03:05:57.432Z,941.74
2018-01-31T03:06:57.427Z,941.72
2018-01-31T03:07:57.422Z,941.69
2018-01-31T03:08:57.416Z,941.70
2018-01-31T03:09:57.411Z,941.69
2018-01-31T03:10:57.404Z,941.74
2018-01-31T03:11:57.400Z,941.74
2018-01-31T03:12:57.394Z,941.70
2018-01-31T03:13:57.388Z,941.70
2018-01-31T03:14:57.382Z,941.72
2018-01-31T03:15:57.378Z,941.71
2018-01-31T03:16:57.373Z,941.72
2018-01-31T03:17:57.365Z,941.73
2018-01-31T03:18:57.361Z,941.71
2018-01-31T03:19:57.356Z,941.72
2018-01-31T03:20:57.349Z,941.69
2018-01-31T03:21:57.345Z,941.72
2018-01-31T03:22:57.340Z,941.73
2018-01-31T03:23:57.335Z,941.68
2018-01-31T03:24:57.330Z,941.71
2018-01-31T03:25:57.324Z,941.71
2018-01-31T03:26:57.319Z,941.73
2018-01-31T03:27:57.314Z,941.76
2018-01-31T03:28:57.308Z,941.77
2018-01-31T03:29:57.302Z,941.76
2018-01-31T03:30:57.298Z,941.74
2018-01-31T03:31:57.292Z,941.73
2018-01-31T03:32:57.287Z,941.76
2018-01-31T03:33:57.281Z,941.74
2018-01-31T03:34:57.277Z,941.76
2018-01-31T03:35:57.271Z,941.70
2018-01-31T03:36:57.265Z,941.73
2018-01-31T03:37:57.261Z,941.73
2018-01-31T03:38:57.257Z,941.68
2018-01-31T03:39:57.249Z,941.69
2018-01-31T03:40:57.245Z,941.68
2018-01-31T03:41:57.239Z,941.65
2018-01-31T03:42:57.234Z,941.60
2018-01-31T03:43:57.229Z,941.58
2018-01-31T03:44:57.226Z,941.56
2018-01-31T03:45:57.217Z,941.59
2018-01-31T03:46:57.213Z,941.57
2018-01-31T03:47:57.207Z,941.59
2018-01-31T03:48:57.202Z,941.60
2018-01-31T03:49:57.196Z,941.58
2018-01-31T03:50:57.191Z,941.59
2018-01-31T03:51:57.185Z,941.51
2018-01-31T03:52:57.181Z,941.54
2018-01-31T03:53:57.175Z,941.51
2018-01-31T03:54:57.170Z,941.52
2018-01-31T03:55:57.165Z,941.54
2018-01-31T03:56:57.160Z,941.53
2018-01-31T03:57:57.154Z,941.49
2018-01-31T03:58:57.150Z,941.51
2018-01-31T03:59:57.143Z,941.51
2018-01-31T04:00:57.140Z,941.54
2018-01-31T04:01:57.134Z,941.50
2018-01-31T04:02:57.130Z,941.49
2018-01-31T04:03:57.124Z,941.47
2018-01-31T04:04:57.118Z,941.47
2018-01-31T04:05:57.113Z,941.47
2018-01-31T04:06:57.108Z,941.49
2018-01-31T04:07:57.102Z,941.45
2018-01-31T04:08:57.099Z,941.48
2018-01-31T04:09:57.091Z,941.52
2018-01-31T04:10:57.087Z,941.49
2018-01-31T04:11:57.082Z,941.46
2018-01-31T04:12:57.077Z,941.43
2018-01-31T04:13:57.072Z,941.43
2018-01-31T04:14:57.067Z,941.44
2018-01-31T04:15:57.063Z,941.39
2018-01-31T04:16:57.057Z,941.41
2018-01-31T04:17:57.051Z,941.37
2018-01-31T04:18:57.047Z,941.34
2018-01-31T04:19:57.041Z,941.34
2018-01-31T04:20:57.045Z,941.34
2018-01-31T04:21:57.030Z,941.33
2018-01-31T04:22:57.026Z,941.31
2018-01-31T04:23:57.020Z,941.30
2018-01-31T04:24:57.015Z,941.29
2018-01-31T04:25:57.009Z,941.31
2018-01-31T04:26:57.004Z,941.27
2018-01-31T04:27:56.998Z,941.25
2018-01-31T04:28:56.994Z,941.24
2018-01-31T04:29:56.988Z,941.29
2018-01-31T04:30:56.982Z,941.29
2018-01-31T04:31:56.977Z,941.25
2018-01-31T04:32:56.973Z,941.25
2018-01-31T04:33:56.967Z,941.27
2018-01-31T04:34:56.962Z,941.22
2018-01-31T04:35:56.957Z,941.24
2018-01-31T04:36:56.953Z,941.23
2018-01-31T04:37:56.946Z,941.27
2018-01-31T04:38:56.941Z,941.22
2018-01-31T04:39:56.936Z,941.19
2018-01-31T04:40:56.930Z,941.15
2018-01-31T04:41:56.925Z,941.18
2018-01-31T04:42:56.920Z,941.13
2018-01-31T04:43:56.914Z,941.12
2018-01-31T04:44:56.909Z,941.09
2018-01-31T04:45:56.903Z,941.05
2018-01-31T04:46:56.898Z,941.05
2018-01-31T04:47:56.902Z,941.02
2018-01-31T04:48:56.888Z,941.06
2018-01-31T04:49:56.882Z,941.02
2018-01-31T04:50:56.876Z,940.97
2018-01-31T04:51:56.875Z,941.01
2018-01-31T04:52:56.867Z,940.91
2018-01-31T04:53:56.860Z,940.98
2018-01-31T04:54:56.855Z,940.94
2018-01-31T04:55:56.850Z,940.95
2018-01-31T04:56:56.845Z,940.95
2018-01-31T04:57:56.839Z,940.93
2018-01-31T04:58:56.834Z,940.95
2018-01-31T04:59:56.828Z,940.94
2018-01-31T05:00:56.824Z,940.95
2018-01-31T05:01:56.816Z,940.95
2018-01-31T05:02:56.812Z,940.89
2018-01-31T05:03:56.807Z,940.88
2018-01-31T05:04:56.799Z,940.87
2018-01-31T05:05:56.794Z,940.88
2018-01-31T05:06:56.788Z,940.86
2018-01-31T05:07:56.783Z,940.88
2018-01-31T05:08:56.778Z,940.86
2018-01-31T05:09:57.073Z,940.82
2018-01-31T05:10:56.766Z,940.87
2018-01-31T05:11:56.760Z,940.89
2018-01-31T05:12:56.754Z,940.86
2018-01-31T05:13:56.749Z,940.85
2018-01-31T05:14:56.748Z,940.88
2018-01-31T05:15:56.742Z,940.82
2018-01-31T05:16:56.733Z,940.83
2018-01-31T05:17:56.729Z,940.87
2018-01-31T05:18:56.722Z,940.81
2018-01-31T05:19:56.717Z,940.83
2018-01-31T05:20:56.711Z,940.78
2018-01-31T05:21:56.705Z,940.78
2018-01-31T05:22:56.700Z,940.82
2018-01-31T05:23:56.694Z,940.77
2018-01-31T05:24:56.689Z,940.78
2018-01-31T05:25:56.683Z,940.80
2018-01-31T05:26:56.677Z,940.78
2018-01-31T05:27:56.672Z,940.72
2018-01-31T05:28:56.666Z,940.72
2018-01-31T05:29:56.660Z,940.71
2018-01-31T05:30:56.655Z,940.80
2018-01-31T05:31:56.650Z,940.75
2018-01-31T05:32:56.643Z,940.75
2018-01-31T05:33:56.638Z,940.71
2018-01-31T05:34:56.632Z,940.71
2018-01-31T05:35:56.627Z,940.69
2018-01-31T05:36:56.621Z,940.69
2018-01-31T05:37:56.614Z,940.70
2018-01-31T05:38:56.611Z,940.72
2018-01-31T05:39:56.604Z,940.70
2018-01-31T05:40:56.599Z,940.68
2018-01-31T05:41:56.593Z,940.69
2018-01-31T05:42:56.586Z,940.66
2018-01-31T05:43:56.582Z,940.73
2018-01-31T05:44:56.577Z,940.72
2018-01-31T05:45:56.571Z,940.71
2018-01-31T05:46:56.565Z,940.66
2018-01-31T05:47:56.560Z,940.63
2018-01-31T05:48:56.555Z,940.59
2018-01-31T05:49:56.549Z,940.64
2018-01-31T05:50:56.544Z,940.63
2018-01-31T05:51:56.538Z,940.65
2018-01-31T05:52:56.533Z,940.60
2018-01-31T05:53:56.526Z,940.61
2018-01-31T05:54:56.521Z,940.59
2018-01-31T05:55:56.516Z,940.59
2018-01-31T05:56:56.510Z,940.57
2018-01-31T05:57:56.504Z,940.51
2018-01-31T05:58:56.499Z,940.51
2018-01-31T05:59:56.493Z,940.52
2018-01-31T06:00:56.489Z,940.51
2018-01-31T06:01:56.482Z,940.53
2018-01-31T06:02:56.483Z,940.49
2018-01-31T06:03:56.472Z,940.50
2018-01-31T06:04:56.466Z,940.48
2018-01-31T06:05:56.459Z,940.45
2018-01-31T06:06:56.456Z,940.44
2018-01-31T06:07:56.450Z,940.44
2018-01-31T06:08:56.444Z,940.44
2018-01-31T06:09:56.438Z,940.43
2018-01-31T06:10:56.434Z,940.41
2018-01-31T06:11:56.428Z,940.35
2018-01-31T06:12:56.422Z,940.35
2018-01-31T06:13:56.416Z,940.42
2018-01-31T06:14:56.411Z,940.36
2018-01-31T06:15:56.406Z,940.35
2018-01-31T06:16:56.401Z,940.39
2018-01-31T06:17:56.394Z,940.42
2018-01-31T06:18:56.390Z,940.40
2018-01-31T06:19:56.384Z,940.43
2018-01-31T06:20:56.379Z,940.40
2018-01-31T06:21:56.373Z,940.34
2018-01-31T06:22:56.368Z,940.34
2018-01-31T06:23:56.362Z,940.32
2018-01-31T06:24:56.356Z,940.31
2018-01-31T06:25:56.351Z,940.32
2018-01-31T06:26:56.345Z,940.35
2018-01-31T06:27:56.340Z,940.31
2018-01-31T06:28:56.335Z,940.28
2018-01-31T06:29:56.329Z,940.31
2018-01-31T06:30:56.323Z,940.24
2018-01-31T06:31:56.318Z,940.27
2018-01-31T06:32:56.313Z,940.25
2018-01-31T06:33:56.306Z,940.29
2018-01-31T06:34:56.302Z,940.33
2018-01-31T06:35:56.296Z,940.33
2018-01-31T06:36:56.292Z,940.35
2018-01-31T06:37:56.284Z,940.34
2018-01-31T06:38:56.280Z,940.30
2018-01-31T06:39:56.275Z,940.31
2018-01-31T06:40:56.269Z,940.31
2018-01-31T06:41:56.262Z,940.30
2018-01-31T06:42:56.257Z,940.27
2018-01-31T06:43:56.252Z,940.29
2018-01-31T06:44:56.246Z,940.31
2018-01-31T06:45:56.239Z,940.28
2018-01-31T06:46:56.233Z,940.28
2018-01-31T06:47:56.229Z,940.27
2018-01-31T06:48:56.224Z,940.28
2018-01-31T06:49:56.217Z,940.26
2018-01-31T06:50:56.212Z,940.22
2018-01-31T06:51:56.206Z,940.28
2018-01-31T06:52:56.201Z,940.19
2018-01-31T06:53:56.194Z,940.20
2018-01-31T06:54:56.188Z,940.24
2018-01-31T06:55:56.183Z,940.14
2018-01-31T06:56:56.177Z,940.12
2018-01-31T06:57:56.173Z,940.10
2018-01-31T06:58:56.166Z,940.13
2018-01-31T06:59:56.161Z,940.10
2018-01-31T07:00:56.156Z,940.14
2018-01-31T07:01:56.150Z,940.15
2018-01-31T07:02:56.144Z,940.06
2018-01-31T07:03:56.138Z,940.15
2018-01-31T07:04:56.133Z,940.10
2018-01-31T07:05:56.126Z,940.08
2018-01-31T07:06:56.120Z,940.08
2018-01-31T07:07:56.115Z,940.07
2018-01-31T07:08:56.109Z,940.07
2018-01-31T07:09:56.102Z,940.04
2018-01-31T07:10:56.097Z,940.05
2018-01-31T07:11:56.092Z,940.03
2018-01-31T07:12:56.086Z,940.00
2018-01-31T07:13:56.082Z,939.98
2018-01-31T07:14:56.074Z,939.95
2018-01-31T07:15:56.069Z,939.95
2018-01-31T07:16:56.065Z,939.92
2018-01-31T07:17:56.057Z,939.87
2018-01-31T07:18:56.051Z,939.84
2018-01-31T07:19:56.045Z,939.81
2018-01-31T07:20:56.040Z,939.82
2018-01-31T07:21:56.033Z,939.78
2018-01-31T07:22:56.028Z,939.79
2018-01-31T07:23:56.022Z,939.76
2018-01-31T07:24:56.015Z,939.72
2018-01-31T07:25:56.010Z,939.71
2018-01-31T07:26:56.004Z,939.76
2018-01-31T07:27:55.998Z,939.79
2018-01-31T07:28:55.993Z,939.78
2018-01-31T07:29:55.987Z,939.81
2018-01-31T07:30:55.981Z,939.74
2018-01-31T07:31:55.977Z,939.73
2018-01-31T07:32:55.972Z,939.70
2018-01-31T07:33:55.967Z,939.63
2018-01-31T07:34:55.962Z,939.66
2018-01-31T07:35:55.957Z,939.62
2018-01-31T07:36:55.954Z,939.68
2018-01-31T07:37:55.946Z,939.70
2018-01-31T07:38:55.942Z,939.66
2018-01-31T07:39:55.938Z,939.67
2018-01-31T07:40:55.934Z,939.72
2018-01-31T07:41:55.930Z,939.74
2018-01-31T07:42:55.924Z,939.82
2018-01-31T07:43:55.922Z,939.78
2018-01-31T07:44:55.921Z,939.77
2018-01-31T07:45:55.915Z,939.76
2018-01-31T07:46:55.912Z,939.80
2018-01-31T07:47:55.909Z,939.86
2018-01-31T07:48:55.908Z,939.88
2018-01-31T07:49:55.904Z,939.84
2018-01-31T07:50:55.904Z,939.84
2018-01-31T07:51:55.902Z,939.83
2018-01-31T07:52:55.902Z,939.80
2018-01-31T07:53:55.900Z,939.78
2018-01-31T07:54:55.899Z,939.78
2018-01-31T07:55:55.901Z,939.80
2018-01-31T07:56:55.902Z,939.77
2018-01-31T07:57:55.902Z,939.76
2018-01-31T07:58:55.903Z,939.68
2018-01-31T07:59:55.904Z,939.70
2018-01-31T08:00:55.907Z,939.68
2018-01-31T08:01:55.910Z,939.69
2018-01-31T08:02:55.910Z,939.61
2018-01-31T08:03:55.912Z,939.66
2018-01-31T08:04:55.937Z,939.56
2018-01-31T08:05:55.918Z,939.60
2018-01-31T08:06:55.924Z,939.55
2018-01-31T08:07:55.924Z,939.54
2018-01-31T08:08:55.928Z,939.53
2018-01-31T08:09:55.930Z,939.57
2018-01-31T08:10:55.934Z,939.52
2018-01-31T08:11:55.938Z,939.47
2018-01-31T08:12:55.942Z,939.47
2018-01-31T08:13:55.946Z,939.40
2018-01-31T08:14:55.950Z,939.36
2018-01-31T08:15:55.955Z,939.35
2018-01-31T08:16:55.960Z,939.37
2018-01-31T08:17:55.963Z,939.37
2018-01-31T08:18:55.970Z,939.39
2018-01-31T08:19:55.975Z,939.32
2018-01-31T08:20:55.987Z,939.33
2018-01-31T08:21:55.986Z,939.35
2018-01-31T08:22:55.992Z,939.32
2018-01-31T08:23:55.998Z,939.25
2018-01-31T08:24:56.005Z,939.24
2018-01-31T08:25:56.011Z,939.18
2018-01-31T08:26:56.016Z,939.16
2018-01-31T08:27:56.021Z,939.24
2018-01-31T08:28:56.028Z,939.19
2018-01-31T08:29:56.031Z,939.21
2018-01-31T08:30:56.037Z,939.16
2018-01-31T08:31:56.042Z,939.10
2018-01-31T08:32:56.046Z,939.12
2018-01-31T08:33:56.048Z,939.06
2018-01-31T08:34:56.053Z,939.07
2018-01-31T08:35:56.056Z,939.09
2018-01-31T08:36:56.058Z,939.08
2018-01-31T08:37:56.059Z,939.08
2018-01-31T08:38:56.062Z,939.10
2018-01-31T08:39:56.063Z,939.05
2018-01-31T08:40:56.066Z,939.07
2018-01-31T08:41:56.069Z,939.08
2018-01-31T08:42:56.069Z,939.07
2018-01-31T08:43:56.072Z,939.05
2018-01-31T08:44:56.073Z,939.09
2018-01-31T08:45:56.074Z,939.07
2018-01-31T08:46:56.076Z,939.07
2018-01-31T08:47:56.078Z,939.01
2018-01-31T08:48:56.130Z,938.99
2018-01-31T08:49:56.083Z,938.96
2018-01-31T08:50:56.085Z,938.99
2018-01-31T08:51:56.089Z,938.97
2018-01-31T08:52:56.092Z,938.96
2018-01-31T08:53:56.094Z,938.96
2018-01-31T08:54:56.098Z,938.93
2018-01-31T08:55:56.101Z,938.93
2018-01-31T08:56:56.105Z,938.88
2018-01-31T08:57:56.106Z,938.91
2018-01-31T08:58:56.111Z,938.90
2018-01-31T08:59:56.113Z,938.88
2018-01-31T09:00:56.116Z,938.86
2018-01-31T09:01:56.117Z,938.84
2018-01-31T09:02:56.121Z,938.80
2018-01-31T09:03:56.122Z,938.71
2018-01-31T09:04:56.124Z,938.70
2018-01-31T09:05:56.124Z,938.68
2018-01-31T09:06:56.126Z,938.69
2018-01-31T09:07:56.127Z,938.72
2018-01-31T09:08:56.128Z,938.69
2018-01-31T09:09:56.128Z,938.70
2018-01-31T09:10:56.128Z,938.65
2018-01-31T09:11:56.129Z,938.65
2018-01-31T09:12:56.129Z,938.57
2018-01-31T09:13:56.128Z,938.62
2018-01-31T09:14:56.134Z,938.62
2018-01-31T09:15:56.129Z,938.60
2018-01-31T09:16:56.129Z,938.65
2018-01-31T09:17:56.129Z,938.68
2018-01-31T09:18:56.127Z,938.67
2018-01-31T09:19:56.128Z,938.57
2018-01-31T09:20:56.129Z,938.57
2018-01-31T09:21:56.131Z,938.58
2018-01-31T09:22:56.127Z,938.59
2018-01-31T09:23:56.128Z,938.58
2018-01-31T09:24:56.127Z,938.54
2018-01-31T09:25:56.126Z,938.51
2018-01-31T09:26:56.127Z,938.54
2018-01-31T09:27:56.126Z,938.55
2018-01-31T09:28:56.128Z,938.48
2018-01-31T09:29:56.126Z,938.42
2018-01-31T09:30:56.126Z,938.40
2018-01-31T09:31:56.126Z,938.33
2018-01-31T09:32:56.126Z,938.32
2018-01-31T09:33:56.125Z,938.27
2018-01-31T09:34:56.125Z,938.23
2018-01-31T09:35:56.125Z,938.20
2018-01-31T09:36:56.125Z,938.13
2018-01-31T09:37:56.123Z,938.09
2018-01-31T09:38:56.123Z,938.08
2018-01-31T09:39:56.122Z,938.08
2018-01-31T09:40:56.130Z,938.07
2018-01-31T09:41:56.121Z,938.02
2018-01-31T09:42:56.119Z,938.05
2018-01-31T09:43:56.120Z,938.00
2018-01-31T09:44:56.119Z,937.98
2018-01-31T09:45:56.117Z,937.99
2018-01-31T09:46:56.116Z,937.96
2018-01-31T09:47:56.116Z,937.96
2018-01-31T09:48:56.114Z,937.91
2018-01-31T09:49:56.112Z,937.91
2018-01-31T09:50:56.113Z,937.92
2018-01-31T09:51:56.111Z,937.89
2018-01-31T09:52:56.109Z,937.89
2018-01-31T09:53:56.108Z,937.81
2018-01-31T09:54:56.106Z,937.79
2018-01-31T09:55:56.106Z,937.75
2018-01-31T09:56:56.105Z,937.83
2018-01-31T09:57:56.103Z,937.78
2018-01-31T09:58:56.101Z,937.82
2018-01-31T09:59:56.100Z,937.83
2018-01-31T10:00:56.099Z,937.82
2018-01-31T10:01:56.097Z,937.81
2018-01-31T10:02:56.096Z,937.73
2018-01-31T10:03:56.131Z,937.69
2018-01-31T10:04:56.105Z,937.71
2018-01-31T10:05:56.464Z,937.70
2018-01-31T10:06:56.401Z,937.69
2018-01-31T10:07:56.089Z,937.66
2018-01-31T10:08:56.088Z,937.62
2018-01-31T10:09:56.086Z,937.64
2018-01-31T10:10:56.085Z,937.65
2018-01-31T10:11:56.085Z,937.62
2018-01-31T10:12:56.083Z,937.59
2018-01-31T10:13:56.081Z,937.54
2018-01-31T10:14:56.080Z,937.53
2018-01-31T10:15:56.351Z,937.52
2018-01-31T10:16:56.150Z,937.45
2018-01-31T10:17:56.077Z,937.48
2018-01-31T10:18:56.077Z,937.39
2018-01-31T10:19:56.078Z,937.38
2018-01-31T10:20:56.074Z,937.35
2018-01-31T10:21:56.073Z,937.25
2018-01-31T10:22:56.072Z,937.21
2018-01-31T10:23:56.071Z,937.17
2018-01-31T10:24:56.071Z,937.22
2018-01-31T10:25:56.070Z,937.19
2018-01-31T10:26:56.071Z,937.17
2018-01-31T10:27:56.070Z,937.11
2018-01-31T10:28:56.070Z,937.10
2018-01-31T10:29:56.068Z,937.09
2018-01-31T10:30:56.070Z,937.11
2018-01-31T10:31:56.071Z,937.08
2018-01-31T10:32:56.073Z,937.06
2018-01-31T10:33:56.073Z,937.03
2018-01-31T10:34:56.076Z,937.06
2018-01-31T10:35:56.076Z,937.08
2018-01-31T10:36:56.080Z,937.05
2018-01-31T10:37:56.082Z,936.94
2018-01-31T10:38:56.084Z,936.95
2018-01-31T10:39:56.088Z,936.86
2018-01-31T10:40:56.094Z,936.86
2018-01-31T10:41:56.096Z,936.83
2018-01-31T10:42:56.099Z,936.81
2018-01-31T10:43:56.103Z,936.77
2018-01-31T10:44:56.109Z,936.74
2018-01-31T10:45:56.113Z,936.73
2018-01-31T10:46:56.115Z,936.68
2018-01-31T10:47:56.121Z,936.73
2018-01-31T10:48:56.125Z,936.69
2018-01-31T10:49:56.127Z,936.66
2018-01-31T10:50:56.133Z,936.63
2018-01-31T10:51:56.138Z,936.70
2018-01-31T10:52:56.143Z,936.67
2018-01-31T10:57:56.169Z,936.51
2018-01-31T10:58:56.177Z,936.45
2018-01-31T10:59:56.182Z,936.42
2018-01-31T11:00:56.190Z,936.35
2018-01-31T11:01:56.194Z,936.31
2018-01-31T11:02:56.202Z,936.28
2018-01-31T11:03:56.242Z,936.27
2018-01-31T11:04:56.217Z,936.21
2018-01-31T11:05:56.224Z,936.19
2018-01-31T11:06:56.232Z,936.19
2018-01-31T11:07:56.238Z,936.17
2018-01-31T11:08:56.246Z,936.11
2018-01-31T11:09:56.253Z,936.08
2018-01-31T11:10:56.262Z,936.01
2018-01-31T11:11:56.269Z,936.01
2018-01-31T11:12:56.276Z,936.00
2018-01-31T11:13:56.283Z,935.96
2018-01-31T11:14:56.294Z,935.92
2018-01-31T11:15:56.303Z,935.87
2018-01-31T11:16:56.306Z,935.84
2018-01-31T11:17:56.312Z,935.80
2018-01-31T11:18:56.320Z,935.70
2018-01-31T11:19:56.329Z,935.69
2018-01-31T11:20:56.336Z,935.66
2018-01-31T11:21:56.341Z,935.66
2018-01-31T11:22:56.350Z,935.62
2018-01-31T11:23:56.360Z,935.61
2018-01-31T11:24:56.364Z,935.56
2018-01-31T11:25:56.370Z,935.50
2018-01-31T11:26:56.376Z,935.46
2018-01-31T11:27:56.386Z,935.42
2018-01-31T11:28:56.392Z,935.38
2018-01-31T11:29:56.397Z,935.33
2018-01-31T11:30:56.404Z,935.32
2018-01-31T11:31:56.411Z,935.32
2018-01-31T11:32:56.418Z,935.30
2018-01-31T11:33:56.422Z,935.26
2018-01-31T11:34:56.429Z,935.26
2018-01-31T11:35:56.436Z,935.18
2018-01-31T11:36:56.443Z,935.17
2018-01-31T11:37:56.449Z,935.15
2018-01-31T11:38:56.455Z,935.15
2018-01-31T11:39:56.462Z,935.14
2018-01-31T11:40:56.477Z,935.09
2018-01-31T11:41:56.474Z,935.05
2018-01-31T11:42:56.481Z,935.05
2018-01-31T11:43:56.487Z,935.03
2018-01-31T11:44:56.493Z,934.94
2018-01-31T11:45:56.500Z,934.89
2018-01-31T11:46:56.511Z,934.83
2018-01-31T11:47:56.512Z,934.82
2018-01-31T11:48:56.518Z,934.82
2018-01-31T11:49:56.524Z,934.72
2018-01-31T11:50:56.529Z,934.69
2018-01-31T11:51:56.535Z,934.65
2018-01-31T11:52:56.541Z,934.65
2018-01-31T11:53:56.545Z,934.68
2018-01-31T11:54:56.550Z,934.62
2018-01-31T11:55:56.555Z,934.59
2018-01-31T11:56:56.563Z,934.55
2018-01-31T11:57:56.568Z,934.59
2018-01-31T11:58:56.570Z,934.56
2018-01-31T11:59:56.576Z,934.55
2018-01-31T12:00:56.582Z,934.55
2018-01-31T12:01:56.588Z,934.52
2018-01-31T12:02:56.593Z,934.48
2018-01-31T12:03:56.598Z,934.47
2018-01-31T12:04:56.604Z,934.45
2018-01-31T12:05:56.609Z,934.42
2018-01-31T12:06:56.615Z,934.46
2018-01-31T12:07:56.620Z,934.43
2018-01-31T12:08:56.628Z,934.40
2018-01-31T12:09:56.634Z,934.31
2018-01-31T12:10:56.642Z,934.31
2018-01-31T12:11:56.647Z,934.27
2018-01-31T12:12:56.654Z,934.20
2018-01-31T12:13:56.659Z,934.23
2018-01-31T12:14:56.666Z,934.18
2018-01-31T12:15:56.673Z,934.16
2018-01-31T12:16:56.679Z,934.17
2018-01-31T12:17:56.686Z,934.14
2018-01-31T12:18:56.693Z,934.12
2018-01-31T12:19:56.699Z,934.10
2018-01-31T12:20:56.705Z,934.09
2018-01-31T12:21:56.711Z,934.08
2018-01-31T12:22:56.718Z,934.08
2018-01-31T12:23:56.724Z,934.03
2018-01-31T12:24:56.732Z,934.03
2018-01-31T12:25:56.737Z,934.03
2018-01-31T12:26:56.743Z,934.02
2018-01-31T12:27:56.749Z,933.98
2018-01-31T12:28:56.755Z,933.98
2018-01-31T12:29:56.763Z,933.91
2018-01-31T12:30:56.767Z,933.88
2018-01-31T12:31:56.773Z,933.84
2018-01-31T12:32:56.784Z,933.84
2018-01-31T12:33:56.785Z,933.82
2018-01-31T12:34:56.792Z,933.83
2018-01-31T12:35:56.797Z,933.83
2018-01-31T12:36:56.805Z,933.86
2018-01-31T12:37:56.811Z,933.85
2018-01-31T12:38:56.816Z,933.80
2018-01-31T12:39:56.823Z,933.77
2018-01-31T12:40:56.830Z,933.73
2018-01-31T12:41:56.834Z,933.73
2018-01-31T12:42:56.840Z,933.70
2018-01-31T12:43:56.847Z,933.63
2018-01-31T12:44:56.852Z,933.61
2018-01-31T12:45:56.857Z,933.60
2018-01-31T12:46:56.864Z,933.56
2018-01-31T12:47:56.871Z,933.59
2018-01-31T12:48:56.878Z,933.56
2018-01-31T12:49:56.883Z,933.56
2018-01-31T12:50:56.889Z,933.54
2018-01-31T12:51:56.896Z,933.53
2018-01-31T12:52:56.901Z,933.52
2018-01-31T12:53:56.907Z,933.49
2018-01-31T12:54:56.914Z,933.47
2018-01-31T12:55:56.920Z,933.38
2018-01-31T12:56:56.925Z,933.41
2018-01-31T12:57:56.932Z,933.40
2018-01-31T12:58:56.938Z,933.38
2018-01-31T12:59:56.944Z,933.34
2018-01-31T13:00:56.950Z,933.33
2018-01-31T13:01:56.958Z,933.33
2018-01-31T13:02:56.961Z,933.34
2018-01-31T13:03:56.967Z,933.36
2018-01-31T13:04:56.974Z,933.41
2018-01-31T13:05:56.978Z,933.40
2018-01-31T13:06:56.985Z,933.38
2018-01-31T13:07:56.992Z,933.33
2018-01-31T13:08:57.008Z,933.29
2018-01-31T13:09:57.002Z,933.21
2018-01-31T13:10:57.010Z,933.23
2018-01-31T13:11:57.016Z,933.22
2018-01-31T13:12:57.022Z,933.19
2018-01-31T13:13:57.027Z,933.20
2018-01-31T13:14:57.061Z,933.14
2018-01-31T13:15:57.039Z,933.20
2018-01-31T13:16:57.044Z,933.11
2018-01-31T13:17:57.049Z,933.08
2018-01-31T13:18:57.055Z,933.14
2018-01-31T13:19:57.061Z,933.09
2018-01-31T13:20:57.066Z,933.07
2018-01-31T13:21:57.070Z,933.05
2018-01-31T13:22:57.076Z,932.99
2018-01-31T13:23:57.298Z,933.04
2018-01-31T13:24:57.088Z,932.97
2018-01-31T13:25:57.095Z,932.96
2018-01-31T13:26:57.096Z,932.93
2018-01-31T13:27:57.101Z,932.94
2018-01-31T13:28:57.105Z,932.88
2018-01-31T13:29:57.109Z,932.88
2018-01-31T13:30:57.115Z,932.88
2018-01-31T13:31:57.119Z,932.94
2018-01-31T13:32:57.123Z,932.91
2018-01-31T13:33:57.126Z,932.86
2018-01-31T13:34:57.132Z,932.81
2018-01-31T13:35:57.134Z,932.78
2018-01-31T13:36:57.140Z,932.75
2018-01-31T13:37:57.144Z,932.71
2018-01-31T13:38:57.148Z,932.65
2018-01-31T13:39:57.151Z,932.63
2018-01-31T13:40:57.156Z,932.57
2018-01-31T13:41:57.159Z,932.52
2018-01-31T13:42:57.163Z,932.47
2018-01-31T13:43:57.167Z,932.40
2018-01-31T13:44:57.170Z,932.42
2018-01-31T13:45:57.173Z,932.43
2018-01-31T13:46:57.175Z,932.38
2018-01-31T13:47:57.180Z,932.33
2018-01-31T13:48:57.183Z,932.26
2018-01-31T13:49:57.184Z,932.20
2018-01-31T13:50:57.188Z,932.22
2018-01-31T13:51:57.191Z,932.16
2018-01-31T13:52:57.195Z,932.20
2018-01-31T13:53:57.197Z,932.13
2018-01-31T13:54:57.198Z,932.14
2018-01-31T13:55:57.201Z,932.17
2018-01-31T13:56:57.205Z,932.08
2018-01-31T13:57:57.204Z,932.07
2018-01-31T13:58:57.207Z,932.02
2018-01-31T13:59:57.209Z,931.92
2018-01-31T14:00:57.210Z,931.91
2018-01-31T14:01:57.213Z,931.80
2018-01-31T14:02:57.215Z,931.78
2018-01-31T14:03:57.218Z,931.86
2018-01-31T14:04:57.218Z,931.88
2018-01-31T14:05:57.220Z,931.87
2018-01-31T14:06:57.222Z,931.85
2018-01-31T14:07:57.224Z,931.84
2018-01-31T14:08:57.225Z,931.85
2018-01-31T14:09:57.226Z,931.88
2018-01-31T14:10:57.228Z,931.86
2018-01-31T14:11:57.231Z,931.83
2018-01-31T14:12:57.232Z,931.79
2018-01-31T14:13:57.234Z,931.80
2018-01-31T14:14:57.236Z,931.80
2018-01-31T14:15:57.238Z,931.82
2018-01-31T14:16:57.240Z,931.82
2018-01-31T14:17:57.240Z,931.86
2018-01-31T14:18:57.424Z,931.86
2018-01-31T14:19:57.246Z,931.86
2018-01-31T14:20:57.248Z,931.86
2018-01-31T14:21:57.249Z,931.81
2018-01-31T14:22:57.252Z,931.86
2018-01-31T14:23:57.256Z,931.87